createdAt,value
2022-11-29T00:00:02.759Z,130.60
2022-11-29T00:03:05.841Z,142.10
2022-11-29T00:05:44.128Z,115.70
2022-11-29T00:08:13.959Z,95.30
2022-11-29T00:10:42.379Z,91.90
2022-11-29T00:13:10.968Z,92.20
2022-11-29T00:15:40.300Z,94.10
2022-11-29T00:18:09.119Z,93.70
2022-11-29T00:20:40.066Z,99.10
2022-11-29T00:23:08.880Z,97.10
2022-11-29T00:25:38.884Z,92.90
2022-11-29T00:28:07.219Z,95.90
2022-11-29T00:30:36.950Z,98.10
2022-11-29T00:33:09.602Z,94.40
2022-11-29T00:35:39.658Z,98.10
2022-11-29T00:38:13.647Z,106.50
2022-11-29T00:40:51.080Z,100.30
2022-11-29T00:43:19.387Z,96.30
2022-11-29T00:46:03.822Z,96.20
2022-11-29T00:48:37.437Z,91.20
2022-11-29T00:51:07.880Z,102.90
2022-11-29T00:53:40.283Z,102.60
2022-11-29T00:56:08.963Z,95.20
2022-11-29T00:58:46.816Z,106.90
2022-11-29T01:01:22.064Z,122.90
2022-11-29T01:03:50.654Z,115.70
2022-11-29T01:06:28.091Z,100.70
2022-11-29T01:08:56.770Z,85.10
2022-11-29T01:11:28.574Z,77.70
2022-11-29T01:14:01.025Z,81.00
2022-11-29T01:16:31.960Z,80.90
2022-11-29T01:19:00.791Z,85.50
2022-11-29T01:21:29.347Z,89.10
2022-11-29T01:23:57.648Z,80.80
2022-11-29T01:26:29.344Z,72.40
2022-11-29T01:28:59.422Z,75.90
2022-11-29T01:31:31.690Z,72.70
2022-11-29T01:34:02.165Z,82.70
2022-11-29T01:36:31.846Z,81.90
2022-11-29T01:39:02.191Z,80.10
2022-11-29T01:41:33.715Z,69.30
2022-11-29T01:44:02.001Z,63.20
2022-11-29T01:46:39.491Z,76.70
2022-11-29T01:49:16.880Z,69.80
2022-11-29T01:51:51.481Z,64.40
2022-11-29T01:54:21.348Z,44.40
2022-11-29T01:56:52.292Z,61.00
2022-11-29T01:59:23.863Z,68.20
2022-11-29T02:01:53.097Z,66.30
2022-11-29T02:04:21.544Z,57.30
2022-11-29T02:06:49.786Z,63.30
2022-11-29T02:09:23.639Z,58.10
2022-11-29T02:12:13.543Z,63.80
2022-11-29T02:14:52.904Z,61.20
2022-11-29T02:17:39.012Z,59.80
2022-11-29T02:20:23.038Z,60.80
2022-11-29T02:22:51.241Z,63.00
2022-11-29T02:25:33.476Z,60.70
2022-11-29T02:28:30.451Z,62.90
2022-11-29T02:31:17.241Z,58.80
2022-11-29T02:34:11.156Z,52.50
2022-11-29T02:36:42.325Z,55.30
2022-11-29T02:39:35.457Z,65.20
2022-11-29T02:42:55.688Z,57.60
2022-11-29T02:45:42.717Z,64.80
2022-11-29T02:48:36.245Z,61.10
2022-11-29T02:51:23.358Z,63.50
2022-11-29T02:53:55.802Z,63.60
2022-11-29T02:56:56.245Z,68.30
2022-11-29T02:59:33.541Z,63.10
2022-11-29T03:02:25.253Z,58.00
2022-11-29T03:05:19.009Z,71.40
2022-11-29T03:08:15.583Z,275.50
2022-11-29T03:10:58.943Z,276.80
2022-11-29T03:14:05.962Z,168.60
2022-11-29T03:16:38.336Z,169.30
2022-11-29T03:19:47.916Z,130.10
2022-11-29T03:22:26.952Z,101.60
2022-11-29T03:24:59.243Z,98.20
2022-11-29T03:27:48.118Z,161.40
2022-11-29T03:30:19.312Z,136.00
2022-11-29T03:33:06.444Z,83.60
2022-11-29T03:35:41.416Z,98.70
2022-11-29T03:38:15.488Z,96.60
2022-11-29T03:41:05.214Z,149.00
2022-11-29T03:43:41.156Z,204.80
2022-11-29T03:46:21.762Z,200.00
2022-11-29T03:48:57.738Z,186.70
2022-11-29T03:51:54.846Z,146.20
2022-11-29T03:54:42.388Z,143.30
2022-11-29T03:57:16.424Z,162.30
2022-11-29T03:59:52.619Z,112.80
2022-11-29T04:03:00.964Z,154.50
2022-11-29T04:05:57.076Z,160.10
2022-11-29T04:08:40.468Z,143.30
2022-11-29T04:11:32.988Z,165.70
2022-11-29T04:14:20.483Z,147.80
2022-11-29T04:17:01.256Z,147.80
2022-11-29T04:19:42.380Z,155.80
2022-11-29T04:22:31.337Z,153.10
2022-11-29T04:25:34.382Z,110.90
2022-11-29T04:28:38.024Z,105.30
2022-11-29T04:31:18.581Z,90.80
2022-11-29T04:33:53.105Z,71.10
2022-11-29T04:36:49.292Z,66.60
2022-11-29T04:39:42.763Z,54.90
2022-11-29T04:42:25.947Z,56.00
2022-11-29T04:45:12.897Z,61.50
2022-11-29T04:48:05.392Z,69.20
2022-11-29T04:50:37.523Z,68.60
2022-11-29T04:53:05.862Z,65.30
2022-11-29T04:55:50.149Z,64.50
2022-11-29T04:58:18.389Z,66.00
2022-11-29T05:01:14.758Z,67.10
2022-11-29T05:04:01.209Z,64.30
2022-11-29T05:06:39.598Z,62.10
2022-11-29T05:09:19.260Z,78.70
2022-11-29T05:12:06.505Z,100.10
2022-11-29T05:15:02.575Z,97.90
2022-11-29T05:20:20.887Z,115.10
2022-11-29T05:22:52.225Z,109.10
2022-11-29T05:25:35.853Z,108.50
2022-11-29T05:28:13.733Z,101.20
2022-11-29T05:31:20.703Z,101.10
2022-11-29T05:34:36.779Z,99.30
2022-11-29T05:37:26.151Z,107.00
2022-11-29T05:40:18.607Z,101.10
2022-11-29T05:42:49.638Z,108.10
2022-11-29T05:45:30.746Z,93.20
2022-11-29T05:48:20.995Z,91.50
2022-11-29T05:51:16.533Z,96.20
2022-11-29T05:53:44.847Z,101.30
2022-11-29T05:56:25.556Z,107.80
2022-11-29T05:59:08.571Z,112.40
2022-11-29T06:01:45.882Z,104.40
2022-11-29T06:04:21.968Z,104.30
2022-11-29T06:07:03.891Z,113.60
2022-11-29T06:09:35.676Z,103.40
2022-11-29T06:12:06.865Z,107.10
2022-11-29T06:15:13.930Z,115.40
2022-11-29T06:17:55.260Z,110.60
2022-11-29T06:20:42.882Z,116.40
2022-11-29T06:23:30.209Z,142.20
2022-11-29T06:26:17.289Z,139.50
2022-11-29T06:29:04.182Z,149.70
2022-11-29T06:31:39.895Z,129.50
2022-11-29T06:34:30.515Z,108.60
2022-11-29T06:37:20.154Z,99.90
2022-11-29T06:39:48.653Z,99.00
2022-11-29T06:42:17.062Z,99.60
2022-11-29T06:44:46.098Z,98.30
2022-11-29T06:47:37.762Z,122.30
2022-11-29T06:50:27.591Z,118.60
2022-11-29T06:53:01.670Z,95.00
2022-11-29T06:55:59.280Z,105.00
2022-11-29T06:58:36.174Z,100.40
2022-11-29T07:01:32.272Z,106.60
2022-11-29T07:04:00.519Z,109.40
2022-11-29T07:06:30.087Z,106.70
2022-11-29T07:09:13.431Z,122.00
2022-11-29T07:11:43.040Z,123.80
2022-11-29T07:14:12.215Z,115.50
2022-11-29T07:17:11.875Z,113.00
2022-11-29T07:19:40.161Z,127.50
2022-11-29T07:22:22.715Z,134.40
2022-11-29T07:25:15.642Z,122.80
2022-11-29T07:27:50.089Z,117.10
2022-11-29T07:30:29.741Z,79.30
2022-11-29T07:33:03.868Z,110.80
2022-11-29T07:35:49.248Z,112.60
2022-11-29T07:38:47.415Z,100.50
2022-11-29T07:41:29.535Z,110.00
2022-11-29T07:44:00.834Z,115.00
2022-11-29T07:46:29.265Z,118.40
2022-11-29T07:48:57.693Z,122.70
2022-11-29T07:51:26.003Z,100.90
2022-11-29T07:53:54.330Z,119.50
2022-11-29T07:56:22.708Z,120.30
2022-11-29T07:58:51.097Z,121.50
2022-11-29T08:01:19.490Z,124.10
2022-11-29T08:03:47.762Z,136.90
2022-11-29T08:06:16.033Z,129.80
2022-11-29T08:08:44.629Z,132.90
2022-11-29T08:11:13.087Z,129.50
2022-11-29T08:13:41.351Z,108.40
2022-11-29T08:16:15.226Z,107.50
2022-11-29T08:18:43.993Z,103.00
2022-11-29T08:21:18.146Z,125.20
2022-11-29T08:23:48.100Z,137.90
2022-11-29T08:26:18.087Z,134.80
2022-11-29T08:28:52.273Z,150.90
2022-11-29T08:31:21.786Z,170.80
2022-11-29T08:33:50.117Z,148.10
2022-11-29T08:36:20.326Z,129.60
2022-11-29T08:38:48.688Z,134.20
2022-11-29T08:41:18.477Z,138.20
2022-11-29T08:43:46.715Z,111.70
2022-11-29T08:46:18.613Z,120.70
2022-11-29T08:48:48.547Z,123.00
2022-11-29T08:51:16.980Z,119.40
2022-11-29T08:53:46.827Z,133.60
2022-11-29T08:57:10.307Z,126.40
2022-11-29T08:59:09.720Z,110.10
2022-11-29T09:01:37.953Z,98.40
2022-11-29T09:04:08.076Z,104.10
2022-11-29T09:06:41.703Z,102.40
2022-11-29T09:09:10.444Z,99.40
2022-11-29T09:11:38.727Z,98.30
2022-11-29T09:14:08.772Z,96.90
2022-11-29T09:16:38.850Z,95.70
2022-11-29T09:19:08.121Z,102.40
2022-11-29T09:21:37.096Z,107.90
2022-11-29T09:24:06.802Z,93.40
2022-11-29T09:26:38.214Z,101.20
2022-11-29T09:29:07.501Z,96.00
2022-11-29T09:31:35.840Z,103.00
2022-11-29T09:34:04.353Z,101.60
2022-11-29T09:36:32.895Z,102.70
2022-11-29T09:39:03.098Z,104.50
2022-11-29T09:42:01.259Z,107.10
2022-11-29T09:45:04.365Z,105.80
2022-11-29T09:48:19.585Z,112.40
2022-11-29T09:50:54.563Z,101.70
2022-11-29T09:53:22.899Z,93.20
2022-11-29T09:56:13.108Z,92.70
2022-11-29T09:59:04.972Z,92.30
2022-11-29T10:01:40.019Z,94.90
2022-11-29T10:04:19.404Z,93.10
2022-11-29T10:07:07.589Z,101.70
2022-11-29T10:10:13.725Z,101.90
2022-11-29T10:13:02.217Z,75.60
2022-11-29T10:15:38.664Z,83.80
2022-11-29T10:18:38.666Z,104.20
2022-11-29T10:21:16.453Z,84.00
2022-11-29T10:23:59.433Z,87.30
2022-11-29T10:26:33.592Z,85.70
2022-11-29T10:29:04.374Z,78.90
2022-11-29T10:31:43.021Z,75.00
2022-11-29T10:34:18.138Z,77.70
2022-11-29T10:37:02.766Z,80.10
2022-11-29T10:39:43.991Z,77.60
2022-11-29T10:42:40.508Z,90.20
2022-11-29T10:45:19.541Z,69.10
2022-11-29T10:47:49.521Z,70.60
2022-11-29T10:50:21.901Z,73.90
2022-11-29T10:52:50.203Z,73.70
2022-11-29T10:55:18.606Z,74.30
2022-11-29T10:58:16.682Z,80.00
2022-11-29T11:00:58.270Z,73.50
2022-11-29T11:03:32.832Z,72.00
2022-11-29T11:06:22.976Z,67.70
2022-11-29T11:09:13.344Z,70.50
2022-11-29T11:11:50.165Z,68.50
2022-11-29T11:14:23.812Z,98.10
2022-11-29T11:16:54.152Z,77.30
2022-11-29T11:19:34.476Z,74.20
2022-11-29T11:22:04.816Z,87.60
2022-11-29T11:24:39.357Z,83.20
2022-11-29T11:27:08.191Z,92.60
2022-11-29T11:29:43.247Z,80.20
2022-11-29T11:32:20.231Z,85.00
2022-11-29T11:35:00.035Z,105.00
2022-11-29T11:37:33.679Z,79.20
2022-11-29T11:40:29.385Z,75.10
2022-11-29T11:45:35.087Z,84.60
2022-11-29T11:48:13.084Z,69.60
2022-11-29T11:50:45.484Z,77.00
2022-11-29T11:53:36.853Z,75.20
2022-11-29T11:56:09.703Z,78.70
2022-11-29T11:58:45.308Z,77.80
2022-11-29T12:01:14.901Z,72.60
2022-11-29T12:04:12.790Z,94.60
2022-11-29T12:06:47.519Z,103.50
2022-11-29T12:09:25.038Z,95.30
2022-11-29T12:12:15.886Z,97.00
2022-11-29T12:15:40.757Z,98.50
2022-11-29T12:18:20.888Z,105.30
2022-11-29T12:21:27.689Z,107.60
2022-11-29T12:23:55.864Z,95.00
2022-11-29T12:26:56.312Z,107.70
2022-11-29T12:29:23.374Z,96.10
2022-11-29T12:31:58.419Z,110.40
2022-11-29T12:34:49.299Z,110.80
2022-11-29T12:37:43.986Z,109.70
2022-11-29T12:40:37.377Z,102.20
2022-11-29T12:43:34.095Z,119.00
2022-11-29T12:46:21.414Z,105.90
2022-11-29T12:48:55.875Z,139.60
2022-11-29T12:52:01.652Z,140.10
2022-11-29T12:55:17.728Z,119.60
2022-11-29T12:58:28.910Z,107.60
2022-11-29T13:01:31.628Z,108.80
2022-11-29T13:04:22.639Z,97.10
2022-11-29T13:06:53.595Z,85.50
2022-11-29T13:10:17.660Z,109.60
2022-11-29T13:13:19.124Z,77.50
2022-11-29T13:16:25.067Z,83.40
2022-11-29T13:19:19.899Z,85.10
2022-11-29T13:22:08.334Z,107.60
2022-11-29T13:24:42.916Z,86.40
2022-11-29T13:27:19.888Z,97.00
2022-11-29T13:29:49.037Z,94.00
2022-11-29T13:32:45.564Z,83.30
2022-11-29T13:35:44.759Z,93.60
2022-11-29T13:38:30.647Z,91.90
2022-11-29T13:41:00.024Z,96.40
2022-11-29T13:43:51.758Z,92.00
2022-11-29T13:46:44.215Z,86.50
2022-11-29T13:49:43.048Z,99.50
2022-11-29T13:52:28.621Z,91.80
2022-11-29T13:58:16.756Z,108.60
2022-11-29T14:00:46.123Z,76.90
2022-11-29T14:03:38.801Z,97.90
2022-11-29T14:06:21.940Z,98.80
2022-11-29T14:11:53.394Z,99.40
2022-11-29T14:14:31.937Z,96.70
2022-11-29T14:17:18.695Z,99.60
2022-11-29T14:20:30.684Z,93.40
2022-11-29T14:23:05.102Z,98.30
2022-11-29T14:25:51.670Z,102.20
2022-11-29T14:28:25.150Z,98.60
2022-11-29T14:30:54.434Z,107.20
2022-11-29T14:33:27.081Z,99.50
2022-11-29T14:36:29.544Z,95.80
2022-11-29T14:39:16.447Z,104.90
2022-11-29T14:41:50.972Z,97.20
2022-11-29T14:44:24.807Z,116.60
2022-11-29T14:47:06.980Z,99.10
2022-11-29T14:49:45.165Z,116.90
2022-11-29T14:52:13.480Z,109.20
2022-11-29T14:54:56.579Z,103.70
2022-11-29T14:57:51.341Z,104.10
2022-11-29T15:00:36.581Z,96.50
2022-11-29T15:03:21.715Z,102.30
2022-11-29T15:06:09.954Z,102.60
2022-11-29T15:08:50.210Z,111.00
2022-11-29T15:11:32.158Z,100.40
2022-11-29T15:14:06.611Z,98.50
2022-11-29T15:16:46.846Z,117.50
2022-11-29T15:19:35.632Z,108.60
2022-11-29T15:22:11.225Z,101.80
2022-11-29T15:25:01.399Z,113.40
2022-11-29T15:27:29.902Z,123.80
2022-11-29T15:30:00.087Z,132.00
2022-11-29T15:32:32.896Z,109.80
2022-11-29T15:35:01.530Z,116.70
2022-11-29T15:37:32.588Z,113.00
2022-11-29T15:40:10.694Z,108.80
2022-11-29T15:42:47.404Z,117.70
2022-11-29T15:45:31.430Z,112.10
2022-11-29T15:48:23.262Z,112.70
2022-11-29T15:51:23.793Z,99.50
2022-11-29T15:54:13.047Z,103.90
2022-11-29T15:56:48.012Z,109.20
2022-11-29T15:59:40.245Z,116.00
2022-11-29T16:02:31.315Z,124.10
2022-11-29T16:05:18.068Z,122.30
2022-11-29T16:07:49.801Z,127.90
2022-11-29T16:10:21.791Z,108.50
2022-11-29T16:12:56.598Z,108.90
2022-11-29T16:15:39.426Z,114.80
2022-11-29T16:18:23.636Z,108.70
2022-11-29T16:21:04.648Z,102.60
2022-11-29T16:23:42.509Z,106.60
2022-11-29T16:26:16.254Z,113.90
2022-11-29T16:31:37.633Z,105.00
2022-11-29T16:34:18.266Z,103.70
2022-11-29T16:36:46.636Z,110.30
2022-11-29T16:39:24.433Z,100.70
2022-11-29T16:42:15.963Z,93.30
2022-11-29T16:44:50.520Z,91.70
2022-11-29T16:47:22.416Z,105.10
2022-11-29T16:50:03.019Z,99.00
2022-11-29T16:52:34.140Z,105.30
2022-11-29T16:55:02.426Z,104.70
2022-11-29T16:57:35.722Z,111.00
2022-11-29T17:00:24.688Z,121.70
2022-11-29T17:02:53.015Z,131.30
2022-11-29T17:05:21.431Z,130.60
2022-11-29T17:07:50.915Z,124.50
2022-11-29T17:10:23.393Z,130.00
2022-11-29T17:12:52.007Z,129.50
2022-11-29T17:15:20.212Z,147.40
2022-11-29T17:17:49.316Z,144.60
2022-11-29T17:20:17.749Z,161.40
2022-11-29T17:22:46.080Z,178.30
2022-11-29T17:25:14.394Z,174.40
2022-11-29T17:27:42.764Z,160.50
2022-11-29T17:30:11.636Z,171.40
2022-11-29T17:32:40.078Z,181.10
2022-11-29T17:35:08.675Z,180.60
2022-11-29T17:37:36.998Z,174.40
2022-11-29T17:40:05.835Z,171.30
2022-11-29T17:42:36.564Z,166.90
2022-11-29T17:45:05.021Z,166.30
2022-11-29T17:47:33.711Z,156.00
2022-11-29T17:50:02.012Z,158.10
2022-11-29T17:52:30.313Z,149.80
2022-11-29T17:54:58.550Z,155.30
2022-11-29T17:57:26.815Z,164.90
2022-11-29T17:59:55.163Z,155.80
2022-11-29T18:02:23.442Z,149.80
2022-11-29T18:04:51.930Z,167.40
2022-11-29T18:07:20.449Z,166.60
2022-11-29T18:09:51.613Z,170.50
2022-11-29T18:12:20.188Z,153.10
2022-11-29T18:14:51.035Z,149.60
2022-11-29T18:17:19.317Z,166.20
2022-11-29T18:19:47.837Z,174.60
2022-11-29T18:22:16.556Z,175.90
2022-11-29T18:24:44.924Z,177.10
2022-11-29T18:27:13.302Z,182.30
2022-11-29T18:29:41.620Z,195.30
2022-11-29T18:32:10.054Z,181.20
2022-11-29T18:34:38.372Z,192.60
2022-11-29T18:37:11.014Z,182.90
2022-11-29T18:39:42.590Z,167.50
2022-11-29T18:42:10.910Z,177.40
2022-11-29T18:44:39.165Z,164.10
2022-11-29T18:47:07.497Z,168.60
2022-11-29T18:49:35.790Z,166.80
2022-11-29T18:52:04.311Z,146.50
2022-11-29T18:54:32.994Z,134.20
2022-11-29T18:57:01.303Z,136.80
2022-11-29T18:59:29.673Z,125.70
2022-11-29T19:01:58.015Z,129.30
2022-11-29T19:04:26.355Z,135.40
2022-11-29T19:06:54.624Z,143.60
2022-11-29T19:09:24.454Z,121.80
2022-11-29T19:11:52.779Z,118.40
2022-11-29T19:14:21.215Z,115.70
2022-11-29T19:16:50.398Z,128.10
2022-11-29T19:19:21.103Z,182.90
2022-11-29T19:21:49.382Z,134.40
2022-11-29T19:24:18.607Z,136.40
2022-11-29T19:26:49.841Z,131.00
2022-11-29T19:29:18.729Z,110.70
2022-11-29T19:31:50.595Z,123.80
2022-11-29T19:34:19.009Z,146.40
2022-11-29T19:36:47.483Z,168.10
2022-11-29T19:39:17.339Z,122.30
2022-11-29T19:41:47.894Z,97.30
2022-11-29T19:44:16.207Z,107.20
2022-11-29T19:46:48.842Z,123.50
2022-11-29T19:49:17.861Z,111.60
2022-11-29T19:51:46.286Z,119.90
2022-11-29T19:54:15.029Z,151.30
2022-11-29T19:56:43.809Z,109.60
2022-11-29T19:59:12.173Z,129.60
2022-11-29T20:01:42.323Z,107.90
2022-11-29T20:04:13.703Z,114.60
2022-11-29T20:06:44.387Z,128.50
2022-11-29T20:09:14.069Z,117.40
2022-11-29T20:11:42.762Z,153.30
2022-11-29T20:14:13.244Z,118.20
2022-11-29T20:16:42.487Z,104.30
2022-11-29T20:19:14.221Z,186.90
2022-11-29T20:21:49.047Z,165.10
2022-11-29T20:24:17.998Z,97.00
2022-11-29T20:26:48.722Z,126.10
2022-11-29T20:29:19.042Z,112.10
2022-11-29T20:31:50.513Z,149.30
2022-11-29T20:34:20.609Z,101.40
2022-11-29T20:36:55.003Z,103.80
2022-11-29T20:39:44.906Z,107.40
2022-11-29T20:42:28.930Z,101.40
2022-11-29T20:45:00.647Z,113.60
2022-11-29T20:47:47.343Z,117.00
2022-11-29T20:50:24.509Z,141.30
2022-11-29T20:53:18.258Z,114.00
2022-11-29T20:55:48.869Z,93.00
2022-11-29T20:58:19.627Z,106.10
2022-11-29T21:00:48.108Z,100.80
2022-11-29T21:03:18.036Z,123.30
2022-11-29T21:05:47.184Z,119.70
2022-11-29T21:08:17.557Z,155.70
2022-11-29T21:10:45.960Z,126.20
2022-11-29T21:13:15.714Z,98.70
2022-11-29T21:15:44.555Z,125.90
2022-11-29T21:18:18.680Z,88.70
2022-11-29T21:21:03.051Z,112.20
2022-11-29T21:23:46.682Z,92.60
2022-11-29T21:26:23.364Z,91.60
2022-11-29T21:29:23.936Z,92.80
2022-11-29T21:31:54.530Z,88.10
2022-11-29T21:34:23.297Z,92.80
2022-11-29T21:36:58.614Z,119.30
2022-11-29T21:39:33.748Z,107.40
2022-11-29T21:44:30.518Z,109.20
2022-11-29T21:46:58.917Z,101.80
2022-11-29T21:49:27.164Z,96.50
2022-11-29T21:51:57.803Z,85.60
2022-11-29T21:54:26.279Z,87.20
2022-11-29T21:56:55.468Z,79.00
2022-11-29T21:59:28.298Z,87.50
2022-11-29T22:01:56.670Z,88.50
2022-11-29T22:04:25.524Z,87.30
2022-11-29T22:06:54.102Z,79.00
2022-11-29T22:09:22.356Z,79.50
2022-11-29T22:11:50.785Z,88.80
2022-11-29T22:14:19.260Z,82.20
2022-11-29T22:16:53.773Z,84.20
2022-11-29T22:19:25.364Z,96.40
2022-11-29T22:22:00.303Z,105.00
2022-11-29T22:24:31.986Z,97.20
2022-11-29T22:27:01.922Z,102.20
2022-11-29T22:29:30.421Z,94.20
2022-11-29T22:31:59.627Z,88.60
2022-11-29T22:34:28.158Z,90.70
2022-11-29T22:36:56.599Z,78.50
2022-11-29T22:39:24.963Z,75.80
2022-11-29T22:41:54.901Z,62.60
2022-11-29T22:44:24.377Z,76.10
2022-11-29T22:46:52.938Z,69.30
2022-11-29T22:49:21.274Z,75.00
2022-11-29T22:51:49.641Z,65.60
2022-11-29T22:54:18.151Z,67.40
2022-11-29T22:56:47.389Z,67.40
2022-11-29T22:59:15.780Z,67.40
2022-11-29T23:01:44.225Z,72.30
2022-11-29T23:04:13.332Z,69.70
2022-11-29T23:06:46.296Z,58.60
2022-11-29T23:09:21.738Z,68.10
2022-11-29T23:11:53.092Z,63.90
2022-11-29T23:14:22.315Z,64.00
2022-11-29T23:16:51.493Z,59.50
2022-11-29T23:19:19.937Z,60.70
2022-11-29T23:21:48.246Z,59.60
2022-11-29T23:24:16.745Z,62.50
2022-11-29T23:26:47.912Z,60.30
2022-11-29T23:29:19.432Z,69.70
2022-11-29T23:31:50.266Z,66.50
2022-11-29T23:34:19.072Z,62.40
2022-11-29T23:36:52.697Z,65.30
2022-11-29T23:39:21.771Z,60.20
2022-11-29T23:41:50.064Z,68.60
2022-11-29T23:44:18.332Z,73.70
2022-11-29T23:46:46.688Z,65.10
2022-11-29T23:49:14.983Z,62.40
2022-11-29T23:51:43.217Z,66.10
2022-11-29T23:54:11.489Z,65.30
2022-11-29T23:56:39.703Z,71.10
2022-11-29T23:59:08.041Z,64.00
